createdAt,value
2023-05-21T00:01:16.334Z,15.43
2023-05-21T00:03:46.181Z,17.10
2023-05-21T00:06:16.096Z,16.25
2023-05-21T00:08:43.354Z,15.13
2023-05-21T00:11:10.152Z,15.65
2023-05-21T00:13:36.851Z,16.30
2023-05-21T00:16:03.609Z,17.67
2023-05-21T00:18:32.280Z,15.30
2023-05-21T00:20:59.353Z,15.90
2023-05-21T00:23:26.382Z,17.00
2023-05-21T00:25:53.639Z,16.70
2023-05-21T00:28:20.570Z,17.15
2023-05-21T00:30:47.280Z,17.80
2023-05-21T00:33:14.185Z,18.13
2023-05-21T00:35:41.185Z,16.05
2023-05-21T00:38:08.660Z,16.48
2023-05-21T00:40:36.303Z,16.83
2023-05-21T00:43:03.410Z,15.93
2023-05-21T00:45:30.170Z,16.77
2023-05-21T00:47:56.910Z,16.00
2023-05-21T00:50:23.624Z,17.30
2023-05-21T00:52:50.514Z,16.77
2023-05-21T00:55:17.316Z,17.83
2023-05-21T00:57:44.162Z,17.63
2023-05-21T01:00:11.935Z,17.90
2023-05-21T01:02:38.798Z,18.15
2023-05-21T01:05:06.751Z,18.42
2023-05-21T01:07:36.102Z,18.80
2023-05-21T01:10:07.812Z,17.77
2023-05-21T01:12:35.681Z,19.65
2023-05-21T01:15:06.506Z,19.52
2023-05-21T01:17:34.287Z,17.02
2023-05-21T01:20:09.400Z,18.42
2023-05-21T01:22:39.668Z,19.05
2023-05-21T01:27:33.405Z,19.48
2023-05-21T01:30:00.214Z,19.42
2023-05-21T01:32:44.930Z,19.98
2023-05-21T01:35:17.410Z,20.02
2023-05-21T01:37:55.309Z,18.88
2023-05-21T01:40:43.661Z,19.77
2023-05-21T01:43:11.583Z,20.80
2023-05-21T01:45:42.316Z,21.90
2023-05-21T01:48:10.201Z,20.88
2023-05-21T01:50:39.102Z,23.08
2023-05-21T01:53:06.130Z,22.95
2023-05-21T01:55:33.446Z,22.15
2023-05-21T01:58:02.532Z,22.08
2023-05-21T02:00:29.510Z,23.13
2023-05-21T02:02:56.437Z,23.00
2023-05-21T02:05:23.347Z,21.55
2023-05-21T02:07:52.069Z,22.83
2023-05-21T02:10:19.197Z,23.80
2023-05-21T02:12:46.250Z,23.80
2023-05-21T02:15:14.396Z,22.75
2023-05-21T02:17:42.556Z,23.38
2023-05-21T02:20:12.413Z,24.13
2023-05-21T02:22:44.565Z,24.65
2023-05-21T02:25:12.700Z,23.73
2023-05-21T02:27:40.672Z,24.83
2023-05-21T02:30:09.454Z,25.83
2023-05-21T02:32:36.312Z,25.10
2023-05-21T02:35:04.504Z,23.45
2023-05-21T02:37:35.082Z,26.27
2023-05-21T02:40:04.275Z,25.67
2023-05-21T02:42:31.034Z,24.95
2023-05-21T02:44:57.973Z,25.83
2023-05-21T02:47:25.493Z,26.70
2023-05-21T02:49:53.159Z,26.00
2023-05-21T02:52:22.624Z,26.90
2023-05-21T02:54:49.352Z,25.63
2023-05-21T02:57:16.019Z,26.95
2023-05-21T02:59:42.763Z,26.40
2023-05-21T03:02:09.415Z,25.42
2023-05-21T03:04:39.010Z,25.83
2023-05-21T03:07:06.288Z,27.58
2023-05-21T03:09:32.942Z,27.75
2023-05-21T03:11:59.578Z,28.13
2023-05-21T03:14:26.512Z,27.98
2023-05-21T03:16:53.218Z,27.25
2023-05-21T03:19:20.908Z,26.00
2023-05-21T03:21:49.141Z,29.20
2023-05-21T03:24:15.977Z,28.90
2023-05-21T03:26:42.614Z,29.35
2023-05-21T03:29:09.346Z,28.63
2023-05-21T03:31:36.064Z,31.17
2023-05-21T03:34:02.814Z,29.13
2023-05-21T03:36:29.507Z,30.50
2023-05-21T03:38:56.196Z,30.17
2023-05-21T03:41:23.156Z,29.75
2023-05-21T03:43:49.792Z,29.80
2023-05-21T03:46:16.592Z,29.65
2023-05-21T03:48:43.427Z,28.83
2023-05-21T03:51:10.102Z,31.52
2023-05-21T03:53:37.127Z,29.67
2023-05-21T03:56:04.015Z,31.52
2023-05-21T03:58:30.951Z,31.05
2023-05-21T04:00:57.865Z,29.75
2023-05-21T04:03:24.653Z,29.48
2023-05-21T04:05:51.486Z,31.13
2023-05-21T04:08:18.251Z,30.75
2023-05-21T04:10:44.997Z,27.98
2023-05-21T04:13:11.629Z,31.05
2023-05-21T04:15:38.911Z,32.15
2023-05-21T04:18:07.175Z,30.42
2023-05-21T04:20:34.065Z,32.58
2023-05-21T04:23:01.277Z,30.40
2023-05-21T04:25:27.941Z,30.23
2023-05-21T04:27:54.790Z,29.75
2023-05-21T04:30:21.989Z,32.70
2023-05-21T04:32:49.027Z,30.13
2023-05-21T04:35:16.173Z,33.47
2023-05-21T04:37:42.802Z,28.77
2023-05-21T04:40:10.122Z,29.13
2023-05-21T04:42:37.021Z,28.88
2023-05-21T04:45:03.885Z,29.75
2023-05-21T04:47:30.677Z,30.05
2023-05-21T04:49:57.528Z,30.52
2023-05-21T04:52:25.055Z,29.08
2023-05-21T04:54:51.868Z,29.63
2023-05-21T04:57:18.563Z,30.60
2023-05-21T04:59:45.232Z,29.40
2023-05-21T05:02:11.908Z,29.58
2023-05-21T05:04:38.814Z,28.73
2023-05-21T05:07:05.524Z,29.90
2023-05-21T05:09:32.210Z,27.83
2023-05-21T05:11:58.979Z,29.25
2023-05-21T05:14:26.203Z,28.20
2023-05-21T05:16:54.387Z,27.05
2023-05-21T05:19:21.301Z,29.30
2023-05-21T05:21:47.946Z,28.65
2023-05-21T05:24:16.234Z,27.90
2023-05-21T05:26:42.878Z,28.58
2023-05-21T05:29:09.814Z,27.10
2023-05-21T05:31:36.958Z,26.92
2023-05-21T05:34:03.578Z,26.92
2023-05-21T05:36:31.394Z,25.73
2023-05-21T05:38:58.110Z,25.95
2023-05-21T05:41:24.739Z,25.30
2023-05-21T05:43:51.580Z,25.75
2023-05-21T05:46:18.297Z,23.88
2023-05-21T05:48:45.119Z,23.60
2023-05-21T05:51:12.034Z,24.42
2023-05-21T05:53:38.873Z,24.85
2023-05-21T05:56:05.891Z,22.40
2023-05-21T05:58:32.907Z,24.23
2023-05-21T06:00:59.650Z,22.50
2023-05-21T06:03:26.871Z,23.58
2023-05-21T06:05:53.797Z,22.65
2023-05-21T06:08:20.713Z,23.15
2023-05-21T06:10:47.421Z,22.17
2023-05-21T06:13:14.198Z,22.35
2023-05-21T06:15:43.209Z,21.95
2023-05-21T06:18:13.209Z,20.00
2023-05-21T06:20:39.967Z,20.58
2023-05-21T06:23:08.774Z,19.90
2023-05-21T06:25:35.957Z,20.25
2023-05-21T06:28:03.076Z,20.42
2023-05-21T06:30:29.799Z,19.50
2023-05-21T06:32:57.378Z,20.52
2023-05-21T06:35:24.504Z,18.05
2023-05-21T06:37:51.219Z,18.50
2023-05-21T06:40:17.916Z,18.75
2023-05-21T06:42:44.766Z,17.95
2023-05-21T06:45:11.989Z,17.70
2023-05-21T06:47:38.733Z,18.80
2023-05-21T06:50:05.959Z,18.15
2023-05-21T06:52:32.672Z,17.77
2023-05-21T06:54:59.340Z,18.95
2023-05-21T06:57:26.036Z,19.00
2023-05-21T06:59:52.785Z,17.42
2023-05-21T07:02:19.506Z,18.30
2023-05-21T07:04:46.317Z,17.02
2023-05-21T07:07:12.976Z,17.77
2023-05-21T07:09:39.750Z,17.05
2023-05-21T07:12:06.795Z,18.15
2023-05-21T07:14:33.492Z,19.20
2023-05-21T07:17:00.358Z,17.80
2023-05-21T07:19:27.161Z,19.17
2023-05-21T07:21:53.993Z,17.77
2023-05-21T07:24:21.246Z,18.92
2023-05-21T07:26:47.953Z,18.30
2023-05-21T07:29:14.577Z,18.02
2023-05-21T07:31:41.277Z,17.17
2023-05-21T07:34:08.252Z,16.05
2023-05-21T07:36:35.077Z,17.55
2023-05-21T07:39:01.819Z,16.92
2023-05-21T07:41:28.512Z,17.45
2023-05-21T07:43:55.519Z,16.75
2023-05-21T07:46:22.212Z,15.55
2023-05-21T07:48:50.055Z,15.95
2023-05-21T07:51:17.143Z,15.40
2023-05-21T07:53:43.825Z,14.32
2023-05-21T07:56:10.833Z,15.68
2023-05-21T07:58:37.819Z,15.80
2023-05-21T08:01:04.500Z,16.92
2023-05-21T08:03:31.370Z,14.63
2023-05-21T08:05:58.292Z,15.52
2023-05-21T08:08:26.518Z,15.63
2023-05-21T08:10:53.339Z,14.98
2023-05-21T08:13:20.143Z,14.73
2023-05-21T08:15:47.110Z,16.20
2023-05-21T08:18:14.002Z,15.45
2023-05-21T08:20:41.381Z,13.70
2023-05-21T08:23:08.261Z,13.88
2023-05-21T08:25:35.026Z,14.07
2023-05-21T08:28:01.753Z,13.35
2023-05-21T08:30:28.437Z,13.05
2023-05-21T08:32:55.330Z,13.48
2023-05-21T08:35:22.216Z,13.35
2023-05-21T08:37:48.979Z,12.82
2023-05-21T08:40:15.792Z,12.73
2023-05-21T08:42:47.192Z,12.65
2023-05-21T08:45:15.310Z,12.65
2023-05-21T08:47:44.054Z,11.93
2023-05-21T08:50:12.630Z,11.52
2023-05-21T08:52:39.704Z,11.98
2023-05-21T08:55:07.494Z,11.90
2023-05-21T08:57:34.674Z,11.30
2023-05-21T09:00:04.834Z,10.93
2023-05-21T09:02:34.476Z,11.27
2023-05-21T09:05:03.609Z,10.13
2023-05-21T09:07:31.865Z,10.80
2023-05-21T09:10:05.988Z,10.20
2023-05-21T09:12:33.387Z,10.57
2023-05-21T09:15:01.344Z,10.52
2023-05-21T09:17:28.183Z,10.13
2023-05-21T09:20:12.631Z,10.00
2023-05-21T09:22:44.122Z,11.98
2023-05-21T09:25:12.456Z,9.77
2023-05-21T09:27:40.208Z,9.73
2023-05-21T09:30:15.430Z,10.52
2023-05-21T09:32:43.352Z,10.23
2023-05-21T09:35:14.874Z,9.35
2023-05-21T09:37:45.653Z,9.68
2023-05-21T09:40:17.351Z,9.23
2023-05-21T09:42:47.667Z,8.88
2023-05-21T09:45:30.261Z,8.98
2023-05-21T09:51:38.232Z,8.52
2023-05-21T09:54:04.899Z,8.52
2023-05-21T09:56:32.285Z,8.43
2023-05-21T09:59:02.082Z,8.15
2023-05-21T10:01:31.723Z,8.38
2023-05-21T10:04:00.149Z,7.53
2023-05-21T10:06:31.091Z,7.70
2023-05-21T10:09:03.953Z,7.80
2023-05-21T10:11:32.537Z,7.72
2023-05-21T10:14:14.960Z,8.32
2023-05-21T10:16:44.322Z,7.80
2023-05-21T10:19:12.242Z,7.45
2023-05-21T10:21:40.092Z,7.57
2023-05-21T10:24:09.180Z,7.63
2023-05-21T10:26:36.345Z,7.70
2023-05-21T10:29:03.648Z,7.78
2023-05-21T10:31:31.132Z,7.75
2023-05-21T10:33:58.140Z,7.10
2023-05-21T10:36:25.881Z,7.30
2023-05-21T10:38:53.353Z,7.13
2023-05-21T10:41:22.119Z,7.55
2023-05-21T10:44:13.293Z,6.75
2023-05-21T10:47:00.177Z,7.55
2023-05-21T10:50:01.808Z,7.07
2023-05-21T10:53:11.120Z,6.22
2023-05-21T10:56:10.271Z,7.47
2023-05-21T10:59:03.057Z,6.23
2023-05-21T11:01:36.350Z,6.68
2023-05-21T11:04:06.153Z,6.63
2023-05-21T11:06:32.942Z,5.95
2023-05-21T11:09:14.974Z,6.85
2023-05-21T11:11:49.854Z,5.82
2023-05-21T11:14:43.616Z,6.22
2023-05-21T11:17:16.358Z,6.25
2023-05-21T11:19:47.514Z,6.57
2023-05-21T11:22:22.586Z,6.55
2023-05-21T11:24:51.078Z,5.85
2023-05-21T11:27:37.947Z,5.70
2023-05-21T11:30:18.316Z,6.05
2023-05-21T11:33:11.298Z,6.30
2023-05-21T11:35:59.553Z,6.00
2023-05-21T11:38:31.098Z,5.80
2023-05-21T11:41:03.406Z,5.60
2023-05-21T11:43:30.158Z,5.50
2023-05-21T11:45:56.970Z,6.10
2023-05-21T11:48:27.463Z,5.55
2023-05-21T11:50:55.637Z,5.72
2023-05-21T11:53:22.352Z,5.97
2023-05-21T11:55:50.765Z,6.55
2023-05-21T11:58:19.624Z,6.13
2023-05-21T12:00:46.348Z,6.18
2023-05-21T12:03:14.750Z,5.55
2023-05-21T12:05:48.984Z,5.75
2023-05-21T12:08:25.495Z,6.10
2023-05-21T12:10:59.845Z,6.20
2023-05-21T12:13:27.034Z,6.30
2023-05-21T12:15:54.628Z,5.47
2023-05-21T12:18:22.113Z,5.93
2023-05-21T12:20:48.781Z,5.82
2023-05-21T12:23:24.177Z,5.95
2023-05-21T12:25:52.211Z,6.95
2023-05-21T12:28:20.724Z,6.30
2023-05-21T12:30:47.956Z,6.28
2023-05-21T12:33:14.612Z,5.75
2023-05-21T12:35:41.478Z,6.13
2023-05-21T12:38:09.787Z,6.10
2023-05-21T12:40:38.280Z,5.55
2023-05-21T12:43:06.068Z,6.65
2023-05-21T12:45:33.594Z,6.35
2023-05-21T12:48:03.788Z,5.88
2023-05-21T12:50:30.549Z,6.60
2023-05-21T12:52:58.639Z,6.50
2023-05-21T12:55:26.280Z,6.10
2023-05-21T12:58:03.620Z,5.57
2023-05-21T13:00:31.921Z,6.13
2023-05-21T13:03:00.989Z,6.38
2023-05-21T13:05:27.869Z,6.13
2023-05-21T13:07:54.610Z,5.75
2023-05-21T13:10:21.355Z,5.35
2023-05-21T13:12:48.043Z,5.93
2023-05-21T13:15:15.201Z,5.85
2023-05-21T13:17:41.965Z,5.45
2023-05-21T13:20:13.501Z,5.82
2023-05-21T13:22:47.737Z,5.38
2023-05-21T13:25:21.214Z,5.68
2023-05-21T13:27:49.442Z,5.43
2023-05-21T13:30:16.115Z,5.35
2023-05-21T13:32:43.480Z,5.97
2023-05-21T13:35:11.874Z,5.97
2023-05-21T13:37:42.165Z,4.85
2023-05-21T13:40:16.464Z,5.53
2023-05-21T13:42:48.295Z,5.25
2023-05-21T13:45:17.461Z,5.18
2023-05-21T13:47:44.990Z,5.20
2023-05-21T13:50:12.202Z,5.88
2023-05-21T13:52:39.048Z,5.30
2023-05-21T13:55:06.543Z,5.25
2023-05-21T13:57:33.557Z,6.10
2023-05-21T14:00:01.300Z,5.35
2023-05-21T14:02:28.347Z,5.40
2023-05-21T14:04:55.154Z,5.25
2023-05-21T14:07:22.233Z,4.78
2023-05-21T14:09:49.189Z,5.43
2023-05-21T14:12:16.871Z,5.10
2023-05-21T14:14:43.601Z,5.60
2023-05-21T14:17:10.497Z,4.95
2023-05-21T14:19:37.182Z,5.38
2023-05-21T14:22:03.850Z,4.90
2023-05-21T14:24:30.699Z,4.90
2023-05-21T14:26:57.501Z,4.90
2023-05-21T14:29:24.303Z,5.15
2023-05-21T14:31:51.181Z,5.65
2023-05-21T14:34:17.812Z,4.57
2023-05-21T14:36:44.646Z,4.60
2023-05-21T14:39:11.533Z,4.93
2023-05-21T14:41:41.492Z,5.20
2023-05-21T14:44:08.411Z,4.47
2023-05-21T14:46:35.355Z,5.55
2023-05-21T14:49:03.607Z,5.10
2023-05-21T14:51:31.607Z,5.03
2023-05-21T14:53:58.555Z,4.57
2023-05-21T14:56:27.343Z,5.07
2023-05-21T14:58:54.377Z,4.80
2023-05-21T15:01:21.275Z,4.78
2023-05-21T15:03:48.147Z,4.88
2023-05-21T15:06:14.949Z,4.30
2023-05-21T15:08:41.765Z,4.93
2023-05-21T15:11:09.887Z,4.45
2023-05-21T15:13:36.702Z,4.72
2023-05-21T15:16:03.655Z,4.75
2023-05-21T15:18:30.567Z,4.72
2023-05-21T15:20:58.247Z,5.85
2023-05-21T15:23:25.322Z,4.85
2023-05-21T15:25:51.989Z,5.55
2023-05-21T15:28:18.759Z,4.55
2023-05-21T15:30:45.629Z,4.40
2023-05-21T15:33:12.258Z,4.35
2023-05-21T15:35:39.451Z,5.05
2023-05-21T15:38:06.580Z,4.70
2023-05-21T15:40:33.537Z,4.22
2023-05-21T15:43:00.315Z,4.18
2023-05-21T15:45:27.205Z,4.72
2023-05-21T15:47:53.905Z,4.30
2023-05-21T15:50:20.683Z,4.70
2023-05-21T15:52:47.380Z,5.00
2023-05-21T15:55:14.330Z,4.30
2023-05-21T15:57:41.205Z,4.40
2023-05-21T16:00:09.374Z,4.47
2023-05-21T16:02:36.571Z,4.32
2023-05-21T16:05:03.506Z,4.35
2023-05-21T16:07:30.164Z,4.63
2023-05-21T16:09:56.809Z,4.70
2023-05-21T16:12:23.572Z,4.22
2023-05-21T16:14:50.356Z,5.07
2023-05-21T16:17:18.324Z,4.35
2023-05-21T16:19:45.200Z,4.15
2023-05-21T16:22:11.842Z,4.22
2023-05-21T16:24:38.492Z,4.20
2023-05-21T16:27:05.499Z,4.30
2023-05-21T16:29:32.359Z,4.70
2023-05-21T16:31:59.044Z,3.80
2023-05-21T16:34:25.915Z,4.45
2023-05-21T16:36:52.554Z,4.40
2023-05-21T16:39:19.385Z,4.63
2023-05-21T16:41:46.088Z,4.50
2023-05-21T16:44:12.833Z,3.95
2023-05-21T16:46:39.692Z,4.40
2023-05-21T16:49:06.376Z,4.93
2023-05-21T16:51:33.029Z,4.90
2023-05-21T16:53:59.986Z,4.45
2023-05-21T16:56:27.637Z,4.28
2023-05-21T16:58:54.300Z,4.55
2023-05-21T17:01:21.055Z,4.40
2023-05-21T17:03:47.988Z,4.18
2023-05-21T17:06:14.993Z,4.25
2023-05-21T17:08:42.780Z,4.93
2023-05-21T17:11:09.761Z,4.35
2023-05-21T17:13:36.432Z,5.07
2023-05-21T17:16:03.260Z,6.82
2023-05-21T17:18:31.224Z,17.65
2023-05-21T17:20:58.863Z,6.40
2023-05-21T17:23:25.592Z,13.82
2023-05-21T17:25:52.616Z,8.75
2023-05-21T17:28:19.473Z,12.27
2023-05-21T17:30:48.720Z,7.88
2023-05-21T17:33:16.371Z,4.55
2023-05-21T17:35:43.314Z,5.32
2023-05-21T17:38:10.400Z,4.85
2023-05-21T17:40:37.356Z,7.95
2023-05-21T17:43:05.245Z,8.18
2023-05-21T17:45:32.102Z,6.78
2023-05-21T17:48:00.433Z,12.70
2023-05-21T17:50:28.014Z,5.07
2023-05-21T17:52:54.812Z,8.88
2023-05-21T17:55:21.625Z,9.65
2023-05-21T17:57:48.745Z,6.93
2023-05-21T18:00:16.054Z,5.22
2023-05-21T18:02:42.955Z,4.55
2023-05-21T18:05:09.895Z,4.50
2023-05-21T18:07:38.572Z,4.38
2023-05-21T18:10:06.102Z,4.68
2023-05-21T18:12:32.777Z,4.20
2023-05-21T18:14:59.734Z,4.13
2023-05-21T18:17:27.051Z,4.43
2023-05-21T18:19:53.909Z,4.13
2023-05-21T18:22:20.854Z,4.05
2023-05-21T18:24:47.965Z,4.78
2023-05-21T18:27:15.685Z,6.28
2023-05-21T18:29:42.568Z,5.60
2023-05-21T18:32:11.090Z,7.50
2023-05-21T18:34:38.246Z,6.30
2023-05-21T18:37:05.403Z,4.75
2023-05-21T18:39:32.441Z,4.43
2023-05-21T18:42:11.955Z,4.68
2023-05-21T18:44:39.677Z,4.22
2023-05-21T18:47:08.297Z,3.95
2023-05-21T18:49:36.215Z,4.65
2023-05-21T18:52:04.384Z,4.18
2023-05-21T18:54:31.390Z,3.95
2023-05-21T18:57:01.017Z,4.32
2023-05-21T18:59:29.104Z,4.15
2023-05-21T19:01:56.100Z,4.80
2023-05-21T19:04:23.115Z,4.60
2023-05-21T19:06:49.979Z,4.30
2023-05-21T19:09:17.213Z,4.28
2023-05-21T19:11:44.321Z,4.38
2023-05-21T19:14:11.318Z,3.78
2023-05-21T19:16:38.244Z,4.32
2023-05-21T19:19:05.891Z,4.93
2023-05-21T19:21:33.115Z,4.13
2023-05-21T19:23:59.889Z,4.60
2023-05-21T19:26:26.963Z,4.25
2023-05-21T19:28:54.736Z,4.55
2023-05-21T19:31:25.399Z,4.40
2023-05-21T19:33:52.332Z,4.68
2023-05-21T19:36:20.297Z,4.20
2023-05-21T19:38:50.937Z,4.90
2023-05-21T19:41:18.577Z,4.88
2023-05-21T19:43:45.698Z,4.88
2023-05-21T19:46:12.622Z,4.50
2023-05-21T19:48:39.503Z,4.25
2023-05-21T19:51:06.348Z,4.45
2023-05-21T19:53:33.242Z,4.20
2023-05-21T19:56:00.234Z,4.78
2023-05-21T19:58:29.424Z,4.50
2023-05-21T20:00:58.485Z,4.70
2023-05-21T20:03:26.656Z,4.18
2023-05-21T20:05:53.635Z,4.53
2023-05-21T20:08:20.848Z,4.35
2023-05-21T20:10:51.152Z,4.05
2023-05-21T20:13:18.588Z,4.72
2023-05-21T20:15:45.583Z,5.00
2023-05-21T20:18:12.855Z,4.22
2023-05-21T20:20:40.992Z,4.93
2023-05-21T20:23:08.308Z,4.45
2023-05-21T20:25:35.007Z,4.40
2023-05-21T20:28:02.623Z,3.78
2023-05-21T20:30:32.756Z,4.78
2023-05-21T20:35:30.120Z,4.55
2023-05-21T20:37:56.761Z,4.50
2023-05-21T20:40:23.423Z,4.80
2023-05-21T20:42:53.529Z,4.78
2023-05-21T20:45:21.144Z,4.55
2023-05-21T20:47:48.229Z,4.70
2023-05-21T20:50:17.783Z,4.82
2023-05-21T20:52:47.356Z,5.00
2023-05-21T20:55:14.670Z,4.93
2023-05-21T20:57:41.903Z,4.80
2023-05-21T21:00:11.321Z,4.50
2023-05-21T21:02:38.807Z,4.90
2023-05-21T21:05:06.109Z,5.10
2023-05-21T21:07:34.292Z,4.95
2023-05-21T21:10:01.458Z,4.80
2023-05-21T21:12:28.485Z,5.05
2023-05-21T21:14:55.519Z,5.13
2023-05-21T21:17:22.397Z,5.43
2023-05-21T21:19:49.263Z,5.00
2023-05-21T21:22:16.288Z,5.38
2023-05-21T21:24:43.023Z,5.13
2023-05-21T21:27:09.734Z,5.03
2023-05-21T21:29:36.402Z,5.18
2023-05-21T21:32:03.341Z,5.53
2023-05-21T21:34:30.046Z,5.28
2023-05-21T21:36:56.778Z,4.88
2023-05-21T21:39:23.964Z,5.18
2023-05-21T21:41:50.763Z,5.28
2023-05-21T21:44:17.399Z,5.15
2023-05-21T21:46:44.055Z,4.72
2023-05-21T21:49:10.815Z,4.20
2023-05-21T21:51:37.979Z,4.32
2023-05-21T21:54:04.901Z,4.80
2023-05-21T21:56:31.568Z,5.20
2023-05-21T21:58:58.418Z,4.68
2023-05-21T22:01:25.163Z,4.50
2023-05-21T22:03:52.052Z,5.35
2023-05-21T22:06:19.007Z,4.57
2023-05-21T22:08:45.845Z,4.68
2023-05-21T22:11:12.758Z,4.78
2023-05-21T22:13:41.572Z,4.53
2023-05-21T22:16:08.461Z,4.90
2023-05-21T22:18:40.471Z,4.88
2023-05-21T22:21:10.033Z,4.32
2023-05-21T22:23:37.986Z,5.07
2023-05-21T22:26:04.797Z,4.85
2023-05-21T22:28:31.470Z,4.47
2023-05-21T22:30:59.079Z,4.82
2023-05-21T22:33:26.731Z,4.82
2023-05-21T22:35:54.325Z,4.97
2023-05-21T22:38:21.553Z,4.70
2023-05-21T22:40:48.378Z,4.88
2023-05-21T22:43:15.141Z,4.93
2023-05-21T22:45:42.299Z,4.85
2023-05-21T22:48:09.435Z,4.95
2023-05-21T22:50:36.471Z,4.35
2023-05-21T22:53:03.703Z,4.72
2023-05-21T22:55:30.340Z,4.93
2023-05-21T22:57:56.989Z,4.50
2023-05-21T23:00:23.711Z,4.88
2023-05-21T23:02:53.859Z,4.35
2023-05-21T23:05:21.225Z,4.05
2023-05-21T23:07:47.992Z,4.25
2023-05-21T23:10:14.771Z,4.55
2023-05-21T23:12:41.477Z,4.75
2023-05-21T23:15:10.088Z,4.13
2023-05-21T23:17:37.320Z,4.50
2023-05-21T23:20:04.838Z,4.18
2023-05-21T23:22:31.654Z,4.38
2023-05-21T23:24:58.534Z,4.25
2023-05-21T23:27:25.256Z,4.28
2023-05-21T23:29:51.989Z,3.78
2023-05-21T23:32:18.786Z,4.50
2023-05-21T23:34:45.455Z,4.40
2023-05-21T23:37:12.663Z,3.80
2023-05-21T23:39:39.925Z,4.68
2023-05-21T23:42:06.957Z,4.40
2023-05-21T23:44:33.580Z,4.40
2023-05-21T23:47:06.616Z,4.70
2023-05-21T23:49:33.383Z,4.25
2023-05-21T23:52:00.078Z,3.80
2023-05-21T23:54:26.818Z,4.35
2023-05-21T23:56:53.515Z,4.50
2023-05-21T23:59:20.325Z,4.15
